Time;durP1;ratioP1;P1;durP2;ratioP2;P2;SDS_P1;SDS_P2;PMS_P1;PMS_P2;Temp;Humidity;BMP_temperature;BMP_pressure;BME280_temperature;BME280_humidity;BME280_pressure;Samples;Min_cycle;Max_cycle;Signal;HPM_P1;HPM_P2
2023/02/03 00:01:09;;;;;;;11.40;3.50;;;;;;;8.06;86.34;102745.69;6103406;19;20664;-75
2023/02/03 00:03:14;;;;;;;12.52;3.90;;;;;;;8.05;86.60;102750.91;6101117;19;20463;-75
2023/02/03 00:05:19;;;;;;;14.48;3.75;;;;;;;8.05;86.26;102751.78;6103373;19;20019;-75
2023/02/03 00:07:24;;;;;;;16.75;4.00;;;;;;;8.07;86.25;102763.13;6102433;19;20017;-75
2023/02/03 00:09:29;;;;;;;12.27;4.00;;;;;;;8.06;86.22;102761.41;6103566;19;20044;-75
2023/02/03 00:11:39;;;;;;;7.97;3.42;;;;;;;8.09;86.04;102757.91;6101788;19;20028;-75
2023/02/03 00:13:45;;;;;;;9.15;3.20;;;;;;;8.10;85.96;102764.88;6102703;19;20383;-75
2023/02/03 00:15:50;;;;;;;11.80;4.10;;;;;;;8.08;86.24;102766.63;6101315;19;20022;-75
2023/02/03 00:17:57;;;;;;;14.93;3.90;;;;;;;8.08;85.75;102764.00;6102297;19;20007;-76
2023/02/03 00:20:02;;;;;;;12.43;3.95;;;;;;;8.04;86.08;102751.81;6100952;19;20018;-76
2023/02/03 00:22:08;;;;;;;10.23;3.08;;;;;;;8.00;85.99;102758.75;6108575;19;20017;-75
2023/02/03 00:24:12;;;;;;;10.35;3.65;;;;;;;7.97;86.14;102750.03;6109408;19;20014;-76
2023/02/03 00:26:19;;;;;;;17.10;4.25;;;;;;;7.96;86.08;102753.53;6108968;19;20180;-75
2023/02/03 00:28:30;;;;;;;14.68;3.45;;;;;;;7.96;86.15;102754.41;6106967;19;20450;-75
2023/02/03 00:30:36;;;;;;;14.18;3.83;;;;;;;7.97;86.17;102750.91;6102808;19;20014;-75
2023/02/03 00:32:41;;;;;;;11.00;3.50;;;;;;;7.91;86.62;102761.38;6105617;19;20484;-75
2023/02/03 00:34:49;;;;;;;10.13;3.58;;;;;;;7.95;86.66;102754.41;6106652;19;20014;-75
2023/02/03 00:36:54;;;;;;;13.93;3.88;;;;;;;7.99;86.66;102758.78;6087074;19;20083;-75
2023/02/03 00:38:59;;;;;;;9.82;3.22;;;;;;;8.02;86.34;102762.25;6105318;19;20464;-75
2023/02/03 00:41:04;;;;;;;9.07;3.30;;;;;;;8.05;86.56;102783.19;6106889;19;20060;-75
2023/02/03 00:43:09;;;;;;;15.95;4.18;;;;;;;8.06;86.33;102779.72;6107665;19;20003;-75
2023/02/03 00:45:17;;;;;;;13.77;3.10;;;;;;;8.03;86.32;102776.22;6105771;19;20037;-75
2023/02/03 00:47:21;;;;;;;12.02;3.08;;;;;;;8.03;86.57;102776.22;6108079;19;20499;-75
2023/02/03 00:49:27;;;;;;;12.05;3.85;;;;;;;8.05;86.60;102764.88;6106110;19;20015;-75
2023/02/03 00:51:32;;;;;;;12.55;3.38;;;;;;;8.07;86.18;102781.47;6106791;19;20512;-76
2023/02/03 00:53:40;;;;;;;13.43;3.10;;;;;;;8.13;86.04;102765.75;6103110;19;20487;-75
2023/02/03 00:55:45;;;;;;;10.48;2.97;;;;;;;8.12;85.93;102744.81;6109087;19;20011;-76
2023/02/03 00:57:50;;;;;;;10.77;3.75;;;;;;;8.09;86.32;102769.25;6107766;19;20074;-76
2023/02/03 00:59:56;;;;;;;14.77;3.42;;;;;;;8.15;85.93;102765.75;6109051;19;20374;-74
2023/02/03 01:02:05;;;;;;;11.48;3.83;;;;;;;8.18;85.84;102764.91;6109003;19;20017;-75
2023/02/03 01:04:10;;;;;;;10.60;2.95;;;;;;;8.19;85.68;102766.63;6108621;19;20015;-75
2023/02/03 01:06:17;;;;;;;13.40;3.67;;;;;;;8.19;85.91;102772.75;6109447;19;20011;-75
2023/02/03 01:08:22;;;;;;;12.15;3.47;;;;;;;8.19;85.67;102767.53;6108304;19;20010;-74
2023/02/03 01:10:28;;;;;;;11.35;3.47;;;;;;;8.19;85.82;102764.91;6111579;19;20034;-76
2023/02/03 01:12:33;;;;;;;9.52;3.17;;;;;;;8.22;85.30;102766.66;6107109;19;20739;-76
2023/02/03 01:14:40;;;;;;;11.85;3.22;;;;;;;8.22;85.25;102770.13;6101186;19;20039;-74
2023/02/03 01:16:45;;;;;;;12.45;3.42;;;;;;;8.25;84.89;102767.50;6106295;19;20451;-74
2023/02/03 01:18:53;;;;;;;9.80;3.22;;;;;;;8.27;84.70;102744.81;6106902;19;20014;-74
2023/02/03 01:20:58;;;;;;;9.68;2.83;;;;;;;8.26;84.75;102727.34;6108257;19;20011;-75
2023/02/03 01:23:03;;;;;;;12.10;3.63;;;;;;;8.29;84.43;102731.72;6105411;19;20062;-74
2023/02/03 01:25:10;;;;;;;9.65;3.15;;;;;;;8.32;84.04;102737.84;6107268;19;20010;-74
2023/02/03 01:27:15;;;;;;;9.52;3.15;;;;;;;8.35;83.58;102744.81;6106895;19;20017;-73
2023/02/03 01:29:19;;;;;;;10.35;2.90;;;;;;;8.36;83.55;102754.41;6104169;19;20011;-73
2023/02/03 01:31:27;;;;;;;10.25;3.20;;;;;;;8.32;83.18;102735.22;6102734;19;20055;-74
2023/02/03 01:33:33;;;;;;;11.35;3.40;;;;;;;8.39;82.96;102735.19;6104626;19;20495;-74
2023/02/03 01:35:43;;;;;;;13.13;3.40;;;;;;;8.41;82.22;102710.78;6105553;19;20379;-74
2023/02/03 01:37:48;;;;;;;11.13;3.25;;;;;;;8.39;82.48;102714.25;6106431;19;20011;-74
2023/02/03 01:39:53;;;;;;;9.15;3.17;;;;;;;8.40;82.65;102721.25;6105620;19;20562;-74
2023/02/03 01:41:58;;;;;;;7.93;2.55;;;;;;;8.38;82.32;102720.38;6107497;19;20018;-74
2023/02/03 01:44:24;;;;;;;10.90;2.92;;;;;;;8.42;82.44;102723.00;6105478;19;20069;-74
2023/02/03 01:46:40;;;;;;;7.13;3.15;;;;;;;8.45;82.35;102722.13;6108745;19;20088;-74
2023/02/03 01:48:45;;;;;;;10.15;2.90;;;;;;;8.46;82.03;102708.16;6102591;19;20971;-74
2023/02/03 01:50:52;;;;;;;7.10;2.30;;;;;;;8.49;81.67;102714.25;6105226;19;21214;-74
2023/02/03 01:53:03;;;;;;;10.50;3.22;;;;;;;8.54;81.73;102719.50;6103046;19;20035;-75
2023/02/03 01:55:15;;;;;;;12.45;3.45;;;;;;;8.51;81.58;102706.41;6109363;19;20027;-74
2023/02/03 01:57:24;;;;;;;10.27;2.88;;;;;;;8.49;81.97;102722.13;6105707;19;20503;-75
2023/02/03 01:59:31;;;;;;;6.40;3.00;;;;;;;8.43;82.42;102708.19;6105789;19;20007;-76
2023/02/03 02:01:39;;;;;;;8.82;2.55;;;;;;;8.47;82.22;102707.28;6106011;19;20027;-74
2023/02/03 02:03:47;;;;;;;8.60;2.90;;;;;;;8.48;82.01;102711.66;6105041;19;20088;-76
2023/02/03 02:05:56;;;;;;;8.90;2.80;;;;;;;8.47;82.37;102699.41;6108667;19;20006;-73
2023/02/03 02:08:03;;;;;;;11.82;2.78;;;;;;;8.44;82.45;102697.66;6104362;19;20003;-73
2023/02/03 02:10:09;;;;;;;13.77;3.20;;;;;;;8.45;82.13;102703.78;6108139;19;20317;-75
2023/02/03 02:12:14;;;;;;;9.27;2.63;;;;;;;8.45;82.39;102722.13;6103786;19;20006;-74
2023/02/03 02:14:20;;;;;;;11.93;3.60;;;;;;;8.44;82.64;102704.66;6104486;19;20417;-76
2023/02/03 02:16:45;;;;;;;14.38;3.50;;;;;;;8.41;82.85;102705.53;6105833;19;20022;-75
2023/02/03 02:19:13;;;;;;;10.68;3.47;;;;;;;8.43;82.74;102695.06;6100060;19;20078;-74
2023/02/03 02:21:40;;;;;;;7.28;2.60;;;;;;;8.42;82.87;102691.56;6103855;19;20019;-75
2023/02/03 02:24:17;;;;;;;8.52;3.10;;;;;;;8.41;82.76;102700.31;6104553;19;20897;-75
2023/02/03 02:26:45;;;;;;;13.10;3.75;;;;;;;8.40;82.91;102700.28;6105712;19;20022;-74
2023/02/03 02:29:14;;;;;;;7.72;2.70;;;;;;;8.42;82.70;102707.28;6098546;19;20015;-74
2023/02/03 02:31:49;;;;;;;11.38;2.90;;;;;;;8.42;82.88;102714.28;6105796;19;20132;-75
2023/02/03 02:34:00;;;;;;;13.40;3.28;;;;;;;8.37;83.55;102703.75;6104795;19;20237;-75
2023/02/03 02:36:14;;;;;;;9.50;2.92;;;;;;;8.42;82.90;102701.16;6104372;19;20338;-74
2023/02/03 02:38:33;;;;;;;6.32;2.58;;;;;;;8.44;82.77;102702.03;6105078;19;20014;-74
2023/02/03 02:40:51;;;;;;;9.70;3.20;;;;;;;8.44;82.88;102712.53;6101415;19;20021;-74
2023/02/03 02:43:07;;;;;;;8.35;3.15;;;;;;;8.42;83.10;102717.75;6101553;19;20015;-74
2023/02/03 02:45:18;;;;;;;9.15;2.88;;;;;;;8.41;82.91;102709.91;6104816;19;20754;-75
2023/02/03 02:47:25;;;;;;;13.10;3.40;;;;;;;8.44;82.94;102699.44;6104037;19;20007;-74
2023/02/03 02:49:38;;;;;;;7.53;3.53;;;;;;;8.47;82.59;102688.94;6105507;19;20017;-74
2023/02/03 02:51:47;;;;;;;6.35;2.42;;;;;;;8.50;82.47;102696.78;6103463;19;20055;-75
2023/02/03 02:53:56;;;;;;;11.45;2.75;;;;;;;8.47;82.32;102705.53;6099247;19;20018;-75
2023/02/03 02:56:05;;;;;;;12.32;2.65;;;;;;;8.50;82.15;102705.50;6103168;19;20334;-75
2023/02/03 02:58:16;;;;;;;7.72;2.78;;;;;;;8.52;81.90;102703.78;6103456;19;20026;-75
2023/02/03 03:00:22;;;;;;;6.68;2.58;;;;;;;8.49;82.27;102705.53;6098908;19;20085;-76
2023/02/03 03:02:37;;;;;;;8.40;2.60;;;;;;;8.53;81.78;102704.63;6104895;19;20039;-75
2023/02/03 03:04:52;;;;;;;14.40;3.47;;;;;;;8.50;82.06;102713.38;6097621;19;20015;-76
2023/02/03 03:07:03;;;;;;;10.20;2.75;;;;;;;8.52;81.74;102700.28;6102808;19;20042;-74
2023/02/03 03:09:11;;;;;;;9.18;2.40;;;;;;;8.51;81.75;102680.22;6106020;19;20027;-75
2023/02/03 03:11:19;;;;;;;8.63;2.20;;;;;;;8.52;81.61;102679.31;6104346;19;20649;-74
2023/02/03 03:13:28;;;;;;;6.90;2.33;;;;;;;8.50;81.75;102673.19;6104490;19;20027;-74
2023/02/03 03:15:35;;;;;;;11.88;3.08;;;;;;;8.51;81.79;102680.22;6104077;19;20043;-74
2023/02/03 03:17:48;;;;;;;8.00;3.00;;;;;;;8.49;81.91;102679.34;6104212;19;20014;-74
2023/02/03 03:20:02;;;;;;;6.03;2.20;;;;;;;8.50;82.04;102667.97;6102107;19;20006;-74
2023/02/03 03:22:11;;;;;;;5.05;2.05;;;;;;;8.50;81.92;102660.09;6103541;19;20014;-74
2023/02/03 03:24:20;;;;;;;9.68;2.80;;;;;;;8.49;81.87;102669.72;6105202;19;20014;-75
2023/02/03 03:26:30;;;;;;;12.15;2.67;;;;;;;8.51;81.89;102682.81;6104557;19;20021;-75
2023/02/03 03:28:43;;;;;;;9.80;2.65;;;;;;;8.49;81.99;102692.44;6099378;19;20018;-75
2023/02/03 03:30:49;;;;;;;12.60;3.00;;;;;;;8.47;82.10;102694.19;6104840;19;20019;-75
2023/02/03 03:32:55;;;;;;;11.73;2.75;;;;;;;8.49;82.06;102676.72;6105690;19;20467;-75
2023/02/03 03:35:04;;;;;;;8.07;2.83;;;;;;;8.49;82.33;102688.06;6100685;19;20113;-75
2023/02/03 03:37:18;;;;;;;11.52;2.92;;;;;;;8.50;82.25;102700.28;6104381;19;20486;-75
2023/02/03 03:39:30;;;;;;;9.73;2.55;;;;;;;8.48;82.42;102701.19;6102745;19;20010;-75
2023/02/03 03:41:45;;;;;;;11.00;2.95;;;;;;;8.49;82.23;102710.78;6102006;19;20031;-74
2023/02/03 03:43:51;;;;;;;8.50;2.42;;;;;;;8.53;82.28;102696.78;6104065;19;20038;-74
2023/02/03 03:46:02;;;;;;;11.70;3.20;;;;;;;8.48;82.10;102681.09;6079305;19;20024;-75
2023/02/03 03:48:13;;;;;;;8.10;2.60;;;;;;;8.48;82.20;102695.94;6101800;19;20154;-74
2023/02/03 03:50:27;;;;;;;5.72;2.50;;;;;;;8.47;82.61;102694.19;6103792;19;20018;-75
2023/02/03 03:52:40;;;;;;;11.80;2.70;;;;;;;8.46;82.34;102685.44;6097497;19;20544;-75
2023/02/03 03:54:47;;;;;;;9.80;2.42;;;;;;;8.42;82.79;102686.31;6104603;19;20066;-76
2023/02/03 03:57:00;;;;;;;9.70;3.20;;;;;;;8.45;82.54;102688.06;6111316;19;20832;-75
2023/02/03 03:59:08;;;;;;;11.10;2.72;;;;;;;8.41;83.09;102694.19;6112620;19;20017;-75
2023/02/03 04:01:16;;;;;;;11.57;2.33;;;;;;;8.41;83.05;102700.31;6111737;19;20021;-75
2023/02/03 04:03:26;;;;;;;10.48;3.13;;;;;;;8.42;82.66;102691.56;6110052;19;20440;-74
2023/02/03 04:05:35;;;;;;;8.48;2.63;;;;;;;8.44;82.61;102688.94;6111174;19;20052;-75
2023/02/03 04:07:41;;;;;;;8.43;2.80;;;;;;;8.45;82.72;102690.69;6112546;19;20010;-74
2023/02/03 04:09:48;;;;;;;8.32;2.17;;;;;;;8.47;82.77;102696.78;6110529;19;20469;-74
2023/02/03 04:12:05;;;;;;;6.88;3.13;;;;;;;8.44;82.55;102686.31;6109903;19;20027;-74
2023/02/03 04:14:10;;;;;;;9.88;2.40;;;;;;;8.46;82.57;102706.41;6106787;19;20502;-74
2023/02/03 04:16:16;;;;;;;7.10;2.15;;;;;;;8.48;82.34;102715.16;6108030;19;20009;-74
2023/02/03 04:18:21;;;;;;;7.32;2.53;;;;;;;8.50;81.94;102708.13;6109232;19;20116;-75
2023/02/03 04:20:27;;;;;;;13.52;2.55;;;;;;;8.51;82.06;102711.66;6107052;19;20017;-75
2023/02/03 04:22:35;;;;;;;9.52;2.65;;;;;;;8.47;82.11;102699.41;6107327;19;20094;-75
2023/02/03 04:24:40;;;;;;;6.25;2.50;;;;;;;8.47;82.15;102704.66;6108248;19;20018;-76
2023/02/03 04:26:47;;;;;;;7.38;2.00;;;;;;;8.53;81.76;102713.41;6106517;19;20015;-75
2023/02/03 04:28:52;;;;;;;10.57;2.55;;;;;;;8.50;82.19;102699.41;6105921;19;21411;-75
2023/02/03 04:30:58;;;;;;;9.43;2.30;;;;;;;8.47;81.96;102704.66;6107016;19;20615;-76
2023/02/03 04:33:03;;;;;;;9.85;2.83;;;;;;;8.51;81.99;102706.41;6108364;19;20014;-75
2023/02/03 04:35:09;;;;;;;12.82;3.17;;;;;;;8.51;82.17;102706.41;6108809;19;20455;-76
2023/02/03 04:37:15;;;;;;;8.40;2.45;;;;;;;8.44;82.29;102696.81;6107305;19;20007;-75
2023/02/03 04:39:22;;;;;;;5.05;2.10;;;;;;;8.47;81.95;102695.03;6107331;19;20482;-76
2023/02/03 04:41:27;;;;;;;8.30;2.00;;;;;;;8.48;81.84;102688.94;6106474;19;20007;-75
2023/02/03 04:43:32;;;;;;;14.63;3.45;;;;;;;8.44;82.13;102699.44;6106386;19;20381;-76
2023/02/03 04:45:40;;;;;;;9.45;2.13;;;;;;;8.40;81.96;102690.72;6105501;19;20007;-75
2023/02/03 04:47:45;;;;;;;8.30;2.00;;;;;;;8.41;82.40;102694.19;6107669;19;20022;-76
2023/02/03 04:49:50;;;;;;;10.63;2.85;;;;;;;8.40;82.54;102700.28;6107845;19;20210;-75
2023/02/03 04:51:55;;;;;;;6.85;2.80;;;;;;;8.41;82.17;102704.69;6108438;19;20011;-75
2023/02/03 04:54:00;;;;;;;8.75;2.22;;;;;;;8.39;82.44;102712.53;6105030;19;20011;-74
2023/02/03 04:56:08;;;;;;;10.20;2.97;;;;;;;8.37;82.69;102711.63;6107520;19;20066;-74
2023/02/03 04:58:14;;;;;;;7.95;2.30;;;;;;;8.37;82.31;102706.38;6108560;19;20006;-74
2023/02/03 05:00:19;;;;;;;8.88;2.22;;;;;;;8.40;82.30;102723.88;6108408;19;20705;-74
2023/02/03 05:02:24;;;;;;;10.57;2.90;;;;;;;8.40;82.42;102713.38;6105896;19;20010;-73
2023/02/03 05:04:30;;;;;;;9.50;2.20;;;;;;;8.42;81.92;102722.13;6104832;19;20368;-74
2023/02/03 05:06:35;;;;;;;11.90;2.72;;;;;;;8.42;82.26;102714.28;6099441;19;20074;-74
2023/02/03 05:08:40;;;;;;;13.50;3.55;;;;;;;8.41;82.43;102725.63;6107886;19;20374;-75
2023/02/03 05:10:45;;;;;;;12.20;2.75;;;;;;;8.36;82.67;102708.13;6107340;19;20021;-76
2023/02/03 05:12:52;;;;;;;8.80;2.60;;;;;;;8.32;82.71;102703.78;6106684;19;20014;-74
2023/02/03 05:14:58;;;;;;;13.80;2.88;;;;;;;8.32;82.66;102698.53;6080756;19;20342;-75
2023/02/03 05:17:03;;;;;;;11.32;2.50;;;;;;;8.30;83.07;102702.91;6104178;19;20006;-74
2023/02/03 05:19:08;;;;;;;8.70;2.55;;;;;;;8.31;82.86;102715.13;6109378;19;20026;-74
2023/02/03 05:21:13;;;;;;;11.45;2.45;;;;;;;8.34;82.84;102706.38;6105480;19;20020;-76
2023/02/03 05:23:21;;;;;;;11.10;3.13;;;;;;;8.31;82.99;102704.63;6105501;19;20056;-75
2023/02/03 05:25:26;;;;;;;9.60;2.75;;;;;;;8.31;83.29;102709.88;6103812;19;20010;-74
2023/02/03 05:27:31;;;;;;;10.70;2.90;;;;;;;8.29;83.00;102703.78;6106609;19;20014;-74
2023/02/03 05:29:39;;;;;;;8.65;3.00;;;;;;;8.33;83.10;102721.22;6105287;19;20377;-75
2023/02/03 05:31:44;;;;;;;10.55;2.60;;;;;;;8.35;82.74;102724.72;6106012;19;20066;-75
2023/02/03 05:33:52;;;;;;;13.63;2.88;;;;;;;8.33;83.10;102712.50;6099755;19;20098;-75
2023/02/03 05:35:57;;;;;;;8.52;2.65;;;;;;;8.35;82.73;102726.47;6106518;19;20602;-75
2023/02/03 05:38:02;;;;;;;15.40;3.30;;;;;;;8.38;82.76;102715.13;6078874;19;20014;-75
2023/02/03 05:42:26;;;;;;;13.90;3.22;;;;;;;8.47;82.03;102720.38;6103967;19;20011;-74
2023/02/03 05:44:32;;;;;;;8.18;2.38;;;;;;;8.51;81.71;102720.38;6108494;19;20221;-75
2023/02/03 05:46:39;;;;;;;7.70;2.47;;;;;;;8.49;82.02;102705.53;6103106;19;20015;-74
2023/02/03 05:48:45;;;;;;;8.95;2.33;;;;;;;8.53;81.76;102723.88;6104965;19;20469;-75
2023/02/03 05:50:50;;;;;;;8.20;2.15;;;;;;;8.53;81.97;102715.13;6104870;19;20018;-74
2023/02/03 05:52:56;;;;;;;11.00;2.60;;;;;;;8.49;81.63;102703.78;6104830;19;20491;-75
2023/02/03 05:55:01;;;;;;;8.93;2.53;;;;;;;8.49;81.97;102702.91;6105811;19;20098;-75
2023/02/03 05:57:06;;;;;;;6.53;2.17;;;;;;;8.49;82.02;102710.78;6104937;19;20414;-74
2023/02/03 05:59:11;;;;;;;6.60;2.40;;;;;;;8.49;82.12;102703.78;6108658;19;20093;-74
2023/02/03 06:01:16;;;;;;;6.43;2.03;;;;;;;8.50;82.08;102704.66;6107240;19;20006;-74
2023/02/03 06:03:23;;;;;;;14.57;2.63;;;;;;;8.51;82.20;102723.00;6107241;19;20463;-75
2023/02/03 06:05:30;;;;;;;13.00;2.78;;;;;;;8.55;82.02;102716.00;6102238;19;20083;-75
2023/02/03 06:07:35;;;;;;;10.43;2.85;;;;;;;8.51;82.37;102722.13;6105347;19;20007;-75
2023/02/03 06:09:40;;;;;;;11.52;3.17;;;;;;;8.49;82.29;102726.50;6103653;19;20047;-74
2023/02/03 06:11:45;;;;;;;9.05;2.42;;;;;;;8.52;82.14;102724.72;6105064;19;20017;-78
2023/02/03 06:13:50;;;;;;;10.88;2.72;;;;;;;8.52;82.35;102713.38;6105213;19;20018;-74
2023/02/03 06:15:56;;;;;;;6.35;2.58;;;;;;;8.51;82.66;102707.28;6103737;19;20010;-74
2023/02/03 06:18:02;;;;;;;12.02;3.22;;;;;;;8.50;82.35;102704.66;6102964;19;20010;-75
2023/02/03 06:20:12;;;;;;;9.02;2.40;;;;;;;8.50;82.48;102717.75;6102108;19;20326;-75
2023/02/03 06:22:20;;;;;;;9.20;2.85;;;;;;;8.48;82.93;102714.28;6103620;19;20048;-75
2023/02/03 06:24:25;;;;;;;8.95;2.88;;;;;;;8.45;82.62;102699.44;6103270;19;20006;-75
2023/02/03 06:26:30;;;;;;;13.48;3.42;;;;;;;8.42;83.05;102696.78;6107110;19;20504;-75
2023/02/03 06:28:37;;;;;;;9.65;2.65;;;;;;;8.40;83.25;102705.53;6102434;19;20416;-75
2023/02/03 06:30:41;;;;;;;6.70;2.90;;;;;;;8.39;83.45;102693.28;6106425;19;20014;-75
2023/02/03 06:32:47;;;;;;;9.35;2.78;;;;;;;8.33;83.33;102705.50;6105782;19;20107;-75
2023/02/03 06:34:52;;;;;;;12.30;3.03;;;;;;;8.27;83.53;102708.16;6107524;19;20170;-75
2023/02/03 06:37:01;;;;;;;9.15;2.97;;;;;;;8.28;83.86;102714.25;6106911;19;20027;-74
2023/02/03 06:39:06;;;;;;;11.35;3.42;;;;;;;8.29;83.68;102730.00;6105677;19;20074;-74
2023/02/03 06:41:11;;;;;;;18.35;3.75;;;;;;;8.31;83.84;102735.22;6106015;19;20070;-77
2023/02/03 06:43:18;;;;;;;10.23;3.63;;;;;;;8.35;83.76;102732.59;6102762;19;20007;-75
2023/02/03 06:45:23;;;;;;;9.82;2.50;;;;;;;8.34;83.70;102740.44;6104554;19;20018;-75
2023/02/03 06:47:29;;;;;;;18.15;3.03;;;;;;;8.38;83.74;102738.72;6106599;19;20330;-75
2023/02/03 06:49:35;;;;;;;9.95;3.22;;;;;;;8.35;83.97;102743.06;6107556;19;20043;-76
2023/02/03 06:51:39;;;;;;;10.05;3.22;;;;;;;8.41;83.79;102736.13;6104358;19;20015;-75
2023/02/03 06:53:47;;;;;;;9.07;2.85;;;;;;;8.42;83.81;102736.09;6100624;19;20034;-75
2023/02/03 06:55:52;;;;;;;12.43;2.75;;;;;;;8.45;83.81;102750.94;6107118;19;20018;-75
2023/02/03 06:57:57;;;;;;;15.70;3.05;;;;;;;8.49;83.65;102750.94;6105028;19;20014;-76
2023/02/03 07:00:03;;;;;;;10.32;3.22;;;;;;;8.51;83.40;102769.28;6105492;19;20006;-75
2023/02/03 07:02:12;;;;;;;8.27;2.60;;;;;;;8.50;83.71;102780.63;6107150;19;20023;-75
2023/02/03 07:04:20;;;;;;;13.35;3.28;;;;;;;8.50;83.78;102768.41;6107785;19;20007;-75
2023/02/03 07:06:28;;;;;;;11.38;3.20;;;;;;;8.48;83.64;102764.06;6104404;19;20015;-75
2023/02/03 07:08:33;;;;;;;11.95;3.60;;;;;;;8.48;83.67;102764.06;6103159;19;19998;-75
2023/02/03 07:10:45;;;;;;;12.77;2.97;;;;;;;8.50;83.55;102764.91;6103345;19;20014;-76
2023/02/03 07:12:51;;;;;;;8.48;2.60;;;;;;;8.51;83.48;102775.41;6108867;19;20047;-77
2023/02/03 07:14:56;;;;;;;10.57;3.08;;;;;;;8.53;83.49;102778.00;6102604;19;20015;-76
2023/02/03 07:17:05;;;;;;;10.88;3.55;;;;;;;8.53;83.62;102768.41;6104975;19;20060;-76
2023/02/03 07:19:09;;;;;;;13.50;3.70;;;;;;;8.54;83.66;102771.91;6103292;19;20011;-76
2023/02/03 07:21:15;;;;;;;11.70;2.30;;;;;;;8.54;83.63;102772.78;6103473;19;20007;-76
2023/02/03 07:23:20;;;;;;;9.60;3.47;;;;;;;8.62;83.20;102787.63;6102237;19;20102;-75
2023/02/03 07:25:26;;;;;;;16.05;3.35;;;;;;;8.61;83.24;102792.00;6104087;19;20021;-76
2023/02/03 07:27:37;;;;;;;15.45;3.75;;;;;;;8.64;83.14;102801.59;6103774;19;20003;-76
2023/02/03 07:29:42;;;;;;;7.78;2.33;;;;;;;8.60;83.10;102790.22;6103905;19;19999;-75
2023/02/03 07:31:48;;;;;;;11.70;2.90;;;;;;;8.68;82.85;102785.84;6102944;19;20417;-75
2023/02/03 07:33:53;;;;;;;11.77;2.88;;;;;;;8.66;82.92;102790.25;6104521;19;20094;-76
2023/02/03 07:36:02;;;;;;;10.85;2.60;;;;;;;8.72;82.48;102789.38;6102218;19;20039;-75
2023/02/03 07:38:11;;;;;;;10.82;2.60;;;;;;;8.72;82.36;102768.41;6085591;19;20535;-76
2023/02/03 07:40:17;;;;;;;8.65;2.45;;;;;;;8.75;82.49;102771.88;6103936;19;20010;-75
2023/02/03 07:42:21;;;;;;;15.35;2.70;;;;;;;8.74;82.68;102796.34;6104105;19;20578;-76
2023/02/03 07:44:30;;;;;;;11.48;3.38;;;;;;;8.75;82.44;102798.09;6102532;19;20014;-76
2023/02/03 07:46:38;;;;;;;8.45;2.83;;;;;;;8.77;82.59;102796.34;6084167;19;20013;-78
2023/02/03 07:48:44;;;;;;;10.00;2.58;;;;;;;8.77;82.77;102790.22;6078989;19;20013;-77
2023/02/03 07:50:51;;;;;;;10.00;2.58;;;;;;;8.77;82.46;102801.59;6099677;19;20014;-76
2023/02/03 07:53:00;;;;;;;11.32;3.05;;;;;;;8.77;82.61;102795.47;6100582;19;20006;-78
2023/02/03 07:55:05;;;;;;;9.00;2.45;;;;;;;8.84;82.40;102788.44;6105801;19;20002;-79
2023/02/03 07:57:10;;;;;;;9.35;2.78;;;;;;;8.84;82.38;102799.81;6099757;19;20447;-79
2023/02/03 07:59:16;;;;;;;12.30;3.35;;;;;;;8.83;82.05;102798.06;6082624;19;20664;-76
2023/02/03 08:01:24;;;;;;;11.23;2.70;;;;;;;8.84;82.19;102797.19;6100064;19;20230;-77
2023/02/03 08:03:29;;;;;;;9.48;2.50;;;;;;;8.86;81.88;102781.47;6102222;19;20481;-77
2023/02/03 08:05:35;;;;;;;10.32;2.58;;;;;;;8.87;81.88;102789.31;6103899;19;20090;-77
2023/02/03 08:07:39;;;;;;;9.10;2.30;;;;;;;8.88;81.81;102800.69;6101974;19;20006;-78
2023/02/03 08:09:45;;;;;;;10.55;2.63;;;;;;;8.87;81.95;102812.91;6102973;19;20232;-78
2023/02/03 08:11:50;;;;;;;7.85;2.58;;;;;;;8.93;81.92;102819.91;6081914;19;20315;-78
2023/02/03 08:13:59;;;;;;;12.30;2.78;;;;;;;8.98;81.75;102820.78;6103703;19;20011;-78
2023/02/03 08:16:04;;;;;;;10.45;2.55;;;;;;;8.96;81.64;102812.03;6105335;19;20058;-75
2023/02/03 08:18:12;;;;;;;10.90;2.53;;;;;;;8.95;81.78;102821.66;6104013;19;20504;-75
2023/02/03 08:20:18;;;;;;;6.65;2.67;;;;;;;8.98;82.06;102810.28;6100109;19;20019;-75
2023/02/03 08:22:26;;;;;;;8.52;2.50;;;;;;;8.99;81.58;102820.75;6102412;19;20028;-78
2023/02/03 08:24:31;;;;;;;9.85;2.60;;;;;;;9.02;81.53;102830.38;6101743;19;20022;-78
2023/02/03 08:26:37;;;;;;;8.10;2.33;;;;;;;9.05;81.06;102832.97;6076880;19;20075;-78
2023/02/03 08:28:43;;;;;;;8.45;2.75;;;;;;;9.08;81.16;102829.47;6100043;19;20026;-75
2023/02/03 08:30:48;;;;;;;12.63;3.05;;;;;;;9.07;81.02;102830.38;6102451;19;20451;-78
2023/02/03 08:32:53;;;;;;;8.52;2.28;;;;;;;9.07;81.40;102822.50;6103538;19;20033;-77
2023/02/03 08:35:00;;;;;;;9.35;2.50;;;;;;;9.08;81.28;102835.59;6102127;19;20256;-75
2023/02/03 08:37:06;;;;;;;11.07;2.65;;;;;;;9.10;81.06;102831.22;6101167;19;20340;-76
2023/02/03 08:39:12;;;;;;;9.18;2.45;;;;;;;9.05;81.21;102819.88;6102386;19;20102;-75
2023/02/03 08:41:19;;;;;;;7.47;2.05;;;;;;;9.06;81.05;102826.88;6104533;19;20014;-78
2023/02/03 08:43:24;;;;;;;12.95;2.80;;;;;;;9.06;80.94;102833.84;6109139;19;20018;-78
2023/02/03 08:45:32;;;;;;;9.18;2.47;;;;;;;9.06;81.48;102833.84;6107843;19;20367;-79
2023/02/03 08:47:38;;;;;;;7.82;2.30;;;;;;;9.06;81.63;102840.00;6109880;19;20082;-78
2023/02/03 08:49:44;;;;;;;10.48;2.80;;;;;;;9.05;81.22;102830.34;6110442;19;20043;-79
2023/02/03 08:51:52;;;;;;;11.57;2.97;;;;;;;9.05;81.22;102846.09;6088034;19;20518;-79
2023/02/03 08:53:57;;;;;;;13.50;2.78;;;;;;;9.04;81.23;102839.13;6100057;19;20043;-75
2023/02/03 08:56:08;;;;;;;11.57;3.17;;;;;;;9.04;81.75;102851.34;6108159;19;20447;-75
2023/02/03 08:58:15;;;;;;;10.30;2.42;;;;;;;9.02;81.56;102846.97;6108595;19;20085;-74
2023/02/03 09:00:21;;;;;;;8.75;2.42;;;;;;;9.08;81.80;102848.69;6106997;19;20039;-74
2023/02/03 09:02:26;;;;;;;13.80;2.83;;;;;;;9.06;81.78;102846.97;6106718;19;20023;-75
2023/02/03 09:04:32;;;;;;;9.77;2.92;;;;;;;9.11;81.73;102853.97;6084943;19;20006;-75
2023/02/03 09:06:44;;;;;;;9.43;2.75;;;;;;;9.13;81.58;102844.31;6076034;19;20426;-77
2023/02/03 09:08:51;;;;;;;13.85;3.42;;;;;;;9.18;81.20;102854.81;6108033;19;20547;-75
2023/02/03 09:10:58;;;;;;;11.23;2.70;;;;;;;9.11;81.30;102861.84;6106758;19;20002;-74
2023/02/03 09:13:03;;;;;;;6.28;2.65;;;;;;;9.14;81.35;102867.06;6106195;19;20355;-74
2023/02/03 09:15:10;;;;;;;11.40;2.70;;;;;;;9.15;81.44;102874.06;6105456;19;20627;-74
2023/02/03 09:17:15;;;;;;;16.17;3.58;;;;;;;9.15;81.57;102854.81;6108156;19;20010;-79
2023/02/03 09:19:20;;;;;;;13.13;3.03;;;;;;;9.12;81.68;102873.19;6110366;19;20063;-78
2023/02/03 09:21:25;;;;;;;10.98;2.63;;;;;;;9.09;81.46;102881.06;6109264;19;20816;-79
2023/02/03 09:23:50;;;;;;;13.60;4.20;;;;;;;9.09;81.80;102887.19;6108582;19;20025;-80
2023/02/03 09:25:56;;;;;;;12.80;4.32;;;;;;;9.13;81.77;102886.28;6107815;19;20619;-79
2023/02/03 09:28:03;;;;;;;13.20;3.10;;;;;;;9.12;82.03;102873.19;6107075;19;20082;-79
2023/02/03 09:30:10;;;;;;;16.50;2.83;;;;;;;9.15;81.60;102879.28;6105281;19;20010;-79
2023/02/03 09:32:15;;;;;;;9.60;2.65;;;;;;;9.18;81.96;102889.78;6106791;19;20010;-75
2023/02/03 09:34:22;;;;;;;10.35;2.72;;;;;;;9.22;81.64;102896.78;6107412;19;20015;-79
2023/02/03 09:36:27;;;;;;;11.98;3.13;;;;;;;9.24;81.20;102888.88;6107333;19;20020;-78
2023/02/03 09:38:33;;;;;;;8.90;3.00;;;;;;;9.25;81.13;102892.41;6106894;19;20011;-79
2023/02/03 09:40:41;;;;;;;6.32;2.80;;;;;;;9.32;80.50;102907.25;6100141;19;20014;-75
2023/02/03 09:43:15;;;;;;;15.57;3.60;;;;;;;9.37;80.95;102900.25;6107033;19;20588;-75
2023/02/03 09:45:27;;;;;;;14.50;3.42;;;;;;;9.40;80.60;102895.88;6103452;19;20294;-79
2023/02/03 09:47:36;;;;;;;11.80;2.42;;;;;;;9.44;80.88;102900.22;6110269;19;20044;-79
2023/02/03 09:49:45;;;;;;;10.00;3.03;;;;;;;9.51;80.58;102898.47;6110431;19;20010;-76
2023/02/03 09:51:59;;;;;;;9.80;2.87;;;;;;;9.61;80.41;102905.44;6107710;19;20659;-74
2023/02/03 09:54:15;;;;;;;13.23;2.65;;;;;;;9.59;79.79;102899.31;6102227;19;20260;-75
2023/02/03 09:56:29;;;;;;;13.15;3.03;;;;;;;9.63;79.83;102898.41;6108195;19;20018;-78
2023/02/03 09:58:36;;;;;;;11.10;2.63;;;;;;;9.59;79.93;102906.31;6104685;19;20657;-75
2023/02/03 10:00:45;;;;;;;12.95;3.20;;;;;;;9.67;80.00;102922.91;6110243;19;20017;-75